createdAt,value
2022-08-20T00:02:14.725Z,98990.53
2022-08-20T00:04:44.318Z,98989.47
2022-08-20T00:07:12.560Z,98993.63
2022-08-20T00:09:41.723Z,98982.41
2022-08-20T00:12:11.127Z,98985.78
2022-08-20T00:14:39.270Z,98978.88
2022-08-20T00:17:07.624Z,98986.91
2022-08-20T00:19:35.980Z,98978.88
2022-08-20T00:22:05.602Z,98977.97
2022-08-20T00:24:35.068Z,98978.88
2022-08-20T00:27:03.471Z,98977.34
2022-08-20T00:29:31.658Z,98974.72
2022-08-20T00:32:00.208Z,98985.19
2022-08-20T00:34:28.852Z,98974.25
2022-08-20T00:36:57.031Z,98972.72
2022-08-20T00:39:26.678Z,98973.19
2022-08-20T00:41:54.975Z,98969.50
2022-08-20T00:44:24.422Z,98974.72
2022-08-20T00:46:53.905Z,98967.47
2022-08-20T00:49:24.992Z,98967.47
2022-08-20T00:51:58.791Z,98980.09
2022-08-20T00:54:31.377Z,98975.63
2022-08-20T00:57:04.977Z,98970.25
2022-08-20T00:59:35.503Z,98981.78
2022-08-20T01:02:05.260Z,98971.50
2022-08-20T01:04:35.866Z,98970.41
2022-08-20T01:07:06.540Z,98968.88
2022-08-20T01:09:58.093Z,98971.34
2022-08-20T01:12:27.695Z,98971.34
2022-08-20T01:14:56.675Z,98969.16
2022-08-20T01:17:27.223Z,98969.03
2022-08-20T01:19:59.750Z,98960.38
2022-08-20T01:22:54.620Z,98965.16
2022-08-20T01:25:34.484Z,98957.94
2022-08-20T01:28:04.884Z,98955.47
2022-08-20T01:30:35.199Z,98962.41
2022-08-20T01:33:03.464Z,98961.56
2022-08-20T01:35:36.001Z,98953.25
2022-08-20T01:38:04.131Z,98949.28
2022-08-20T01:40:49.861Z,98960.38
2022-08-20T01:43:19.412Z,98959.13
2022-08-20T01:45:50.192Z,98955.28
2022-08-20T01:48:19.809Z,98949.56
2022-08-20T01:51:02.243Z,98956.66
2022-08-20T01:53:34.728Z,98949.56
2022-08-20T01:56:04.266Z,98959.09
2022-08-20T01:58:36.763Z,98956.63
2022-08-20T02:01:05.309Z,98957.22
2022-08-20T02:03:38.857Z,98965.53
2022-08-20T02:06:10.578Z,98968.91
2022-08-20T02:08:38.642Z,98960.44
2022-08-20T02:11:06.932Z,98968.44
2022-08-20T02:13:36.410Z,98967.97
2022-08-20T02:16:06.244Z,98969.81
2022-08-20T02:18:34.544Z,98973.50
2022-08-20T02:21:03.458Z,98964.88
2022-08-20T02:23:31.593Z,98974.75
2022-08-20T02:26:00.454Z,98964.38
2022-08-20T02:28:28.924Z,98964.56
2022-08-20T02:31:00.608Z,98958.41
2022-08-20T02:33:28.794Z,98964.25
2022-08-20T02:35:58.011Z,98960.84
2022-08-20T02:38:26.494Z,98958.06
2022-08-20T02:40:54.692Z,98958.75
2022-08-20T02:43:22.842Z,98955.63
2022-08-20T02:45:51.721Z,98956.13
2022-08-20T02:48:23.240Z,98958.25
2022-08-20T02:50:54.244Z,98959.94
2022-08-20T02:53:22.546Z,98955.00
2022-08-20T02:55:50.819Z,98957.56
2022-08-20T02:58:20.145Z,98956.03
2022-08-20T03:00:48.766Z,98952.50
2022-08-20T03:03:22.387Z,98957.25
2022-08-20T03:05:54.364Z,98951.28
2022-08-20T03:08:23.571Z,98949.59
2022-08-20T03:10:52.777Z,98954.81
2022-08-20T03:13:22.251Z,98951.41
2022-08-20T03:15:57.938Z,98950.34
2022-08-20T03:18:28.844Z,98951.06
2022-08-20T03:20:58.526Z,98944.25
2022-08-20T03:23:27.024Z,98950.03
2022-08-20T03:25:55.180Z,98950.75
2022-08-20T03:28:23.513Z,98948.75
2022-08-20T03:30:53.250Z,98951.72
2022-08-20T03:33:22.669Z,98963.25
2022-08-20T03:35:51.123Z,98962.38
2022-08-20T03:38:32.830Z,98961.63
2022-08-20T03:41:03.549Z,98966.88
2022-08-20T03:43:32.642Z,98960.38
2022-08-20T03:46:01.069Z,98965.28
2022-08-20T03:48:29.295Z,98961.63
2022-08-20T03:51:00.834Z,98972.53
2022-08-20T03:53:31.903Z,98970.47
2022-08-20T03:56:05.048Z,98969.19
2022-08-20T03:58:35.590Z,98960.81
2022-08-20T04:01:07.797Z,98964.03
2022-08-20T04:03:58.742Z,98964.13
2022-08-20T04:06:27.952Z,98966.47
2022-08-20T04:08:57.736Z,98963.25
2022-08-20T04:11:26.511Z,98963.19
2022-08-20T04:13:54.595Z,98962.53
2022-08-20T04:16:22.804Z,98965.81
2022-08-20T04:18:56.267Z,98963.66
2022-08-20T04:21:33.129Z,98961.69
2022-08-20T04:24:03.681Z,98968.19
2022-08-20T04:26:32.114Z,98972.66
2022-08-20T04:29:00.355Z,98969.88
2022-08-20T04:31:33.722Z,98977.88
2022-08-20T04:34:03.224Z,98986.66
2022-08-20T04:36:31.500Z,98980.13
2022-08-20T04:38:59.687Z,98983.97
2022-08-20T04:41:28.314Z,98988.91
2022-08-20T04:43:58.624Z,98985.50
2022-08-20T04:46:28.982Z,98986.88
2022-08-20T04:48:57.948Z,98985.50
2022-08-20T04:51:26.931Z,98978.41
2022-08-20T04:53:56.688Z,98977.34
2022-08-20T04:56:27.404Z,98985.50
2022-08-20T04:58:59.043Z,98995.38
2022-08-20T05:01:28.256Z,98989.66
2022-08-20T05:03:57.545Z,98988.13
2022-08-20T05:06:28.744Z,98989.03
2022-08-20T05:08:59.393Z,98979.47
2022-08-20T05:11:34.472Z,98984.91
2022-08-20T05:14:09.000Z,98981.81
2022-08-20T05:16:41.136Z,98989.22
2022-08-20T05:19:12.065Z,98989.13
2022-08-20T05:21:41.574Z,98986.13
2022-08-20T05:24:10.554Z,98988.28
2022-08-20T05:26:38.732Z,98988.56
2022-08-20T05:29:08.383Z,98991.81
2022-08-20T05:31:38.569Z,98988.91
2022-08-20T05:34:11.374Z,98987.63
2022-08-20T05:36:41.103Z,98989.69
2022-08-20T05:39:10.465Z,98987.78
2022-08-20T05:41:39.054Z,98988.47
2022-08-20T05:44:10.930Z,98984.66
2022-08-20T05:46:41.054Z,98982.75
2022-08-20T05:49:09.536Z,98983.53
2022-08-20T05:51:38.235Z,98987.88
2022-08-20T05:54:08.048Z,98989.56
2022-08-20T05:56:37.382Z,98992.19
2022-08-20T05:59:07.793Z,98991.34
2022-08-20T06:01:40.534Z,98988.16
2022-08-20T06:04:28.258Z,98982.88
2022-08-20T06:06:59.702Z,98980.59
2022-08-20T06:09:31.766Z,98987.41
2022-08-20T06:12:02.610Z,98986.22
2022-08-20T06:14:31.407Z,98984.97
2022-08-20T06:17:06.465Z,98988.28
2022-08-20T06:19:35.353Z,98982.38
2022-08-20T06:22:17.759Z,98982.84
2022-08-20T06:24:48.847Z,98981.41
2022-08-20T06:27:18.426Z,98976.78
2022-08-20T06:29:47.165Z,98979.78
2022-08-20T06:32:17.624Z,98976.78
2022-08-20T06:34:49.824Z,98977.88
2022-08-20T06:37:22.049Z,98977.00
2022-08-20T06:39:50.886Z,98977.78
2022-08-20T06:42:21.021Z,98968.72
2022-08-20T06:44:51.027Z,98982.50
2022-08-20T06:47:22.027Z,98977.88
2022-08-20T06:49:50.498Z,98981.66
2022-08-20T06:52:19.084Z,98974.28
2022-08-20T06:54:47.755Z,98974.56
2022-08-20T06:57:17.382Z,98973.69
2022-08-20T06:59:45.476Z,98975.97
2022-08-20T07:02:30.147Z,98974.72
2022-08-20T07:04:59.069Z,98979.41
2022-08-20T07:07:27.349Z,98977.19
2022-08-20T07:10:01.341Z,98976.03
2022-08-20T07:12:29.874Z,98967.44
2022-08-20T07:14:57.990Z,98974.66
2022-08-20T07:17:27.560Z,98968.44
2022-08-20T07:19:55.887Z,98960.47
2022-08-20T07:22:24.984Z,98963.69
2022-08-20T07:24:53.257Z,98954.66
2022-08-20T07:27:24.251Z,98965.28
2022-08-20T07:30:12.842Z,98961.41
2022-08-20T07:32:46.010Z,98964.13
2022-08-20T07:35:18.448Z,98959.41
2022-08-20T07:37:49.596Z,98957.03
2022-08-20T07:40:25.735Z,98953.88
2022-08-20T07:42:54.840Z,98951.56
2022-08-20T07:45:23.888Z,98945.63
2022-08-20T07:47:54.341Z,98938.72
2022-08-20T07:50:26.309Z,98941.59
2022-08-20T07:52:54.746Z,98940.75
2022-08-20T07:55:23.271Z,98945.69
2022-08-20T07:57:52.253Z,98939.03
2022-08-20T08:00:22.932Z,98935.13
2022-08-20T08:02:51.088Z,98932.13
2022-08-20T08:05:20.949Z,98926.09
2022-08-20T08:07:49.192Z,98925.34
2022-08-20T08:10:21.834Z,98921.94
2022-08-20T08:12:54.637Z,98928.22
2022-08-20T08:15:25.775Z,98922.28
2022-08-20T08:17:55.547Z,98922.84
2022-08-20T08:20:25.356Z,98909.25
2022-08-20T08:22:53.936Z,98902.00
2022-08-20T08:25:22.255Z,98904.50
2022-08-20T08:28:08.002Z,98903.25
2022-08-20T08:30:36.175Z,98898.22
2022-08-20T08:33:21.363Z,98891.09
2022-08-20T08:35:51.573Z,98883.31
2022-08-20T08:38:20.156Z,98881.09
2022-08-20T08:40:52.210Z,98886.25
2022-08-20T08:43:31.837Z,98875.81
2022-08-20T08:46:02.966Z,98876.03
2022-08-20T08:48:36.583Z,98871.69
2022-08-20T08:51:12.547Z,98873.50
2022-08-20T08:53:47.417Z,98869.94
2022-08-20T08:56:16.743Z,98867.69
2022-08-20T08:58:45.218Z,98854.94
2022-08-20T09:01:54.243Z,98865.59
2022-08-20T09:04:06.304Z,98859.28
2022-08-20T09:06:36.012Z,98863.91
2022-08-20T09:09:06.707Z,98854.69
2022-08-20T09:11:47.803Z,98851.94
2022-08-20T09:14:16.178Z,98844.81
2022-08-20T09:16:52.402Z,98851.19
2022-08-20T09:19:21.765Z,98841.72
2022-08-20T09:21:51.373Z,98846.09
2022-08-20T09:24:19.647Z,98842.50
2022-08-20T09:26:48.054Z,98839.75
2022-08-20T09:29:16.176Z,98828.03
2022-08-20T09:31:45.109Z,98832.34
2022-08-20T09:34:14.852Z,98828.69
2022-08-20T09:36:42.941Z,98821.31
2022-08-20T09:39:12.735Z,98817.22
2022-08-20T09:41:41.512Z,98814.16
2022-08-20T09:44:09.590Z,98809.84
2022-08-20T09:46:38.171Z,98811.16
2022-08-20T09:49:06.306Z,98803.44
2022-08-20T09:51:38.431Z,98805.53
2022-08-20T09:54:07.469Z,98799.63
2022-08-20T09:56:37.157Z,98798.06
2022-08-20T09:59:05.463Z,98782.25
2022-08-20T10:01:35.101Z,98784.19
2022-08-20T10:04:03.247Z,98788.75
2022-08-20T10:06:34.599Z,98784.50
2022-08-20T10:09:05.598Z,98770.44
2022-08-20T10:11:33.877Z,98772.25
2022-08-20T10:14:03.686Z,98778.59
2022-08-20T10:16:31.899Z,98760.97
2022-08-20T10:19:00.053Z,98770.69
2022-08-20T10:21:28.746Z,98762.06
2022-08-20T10:23:56.898Z,98768.41
2022-08-20T10:26:25.413Z,98766.06
2022-08-20T10:28:54.177Z,98761.16
2022-08-20T10:31:23.863Z,98760.78
2022-08-20T10:33:51.917Z,98749.53
2022-08-20T10:36:20.445Z,98752.97
2022-08-20T10:38:49.637Z,98744.00
2022-08-20T10:41:17.842Z,98744.78
2022-08-20T10:43:46.076Z,98734.50
2022-08-20T10:46:14.547Z,98751.91
2022-08-20T10:48:44.537Z,98730.06
2022-08-20T10:51:12.682Z,98727.22
2022-08-20T10:53:41.222Z,98713.41
2022-08-20T10:56:11.742Z,98718.09
2022-08-20T10:58:43.230Z,98720.47
2022-08-20T11:01:12.974Z,98715.84
2022-08-20T11:04:01.471Z,98712.84
2022-08-20T11:06:29.668Z,98699.03
2022-08-20T11:08:57.838Z,98702.00
2022-08-20T11:11:26.024Z,98684.50
2022-08-20T11:13:54.162Z,98685.88
2022-08-20T11:16:22.865Z,98678.41
2022-08-20T11:18:51.150Z,98679.28
2022-08-20T11:21:20.685Z,98675.81
2022-08-20T11:23:48.891Z,98678.09
2022-08-20T11:26:26.452Z,98675.66
2022-08-20T11:28:54.587Z,98674.78
2022-08-20T11:31:22.725Z,98673.88
2022-08-20T11:33:51.103Z,98676.19
2022-08-20T11:36:20.786Z,98667.63
2022-08-20T11:38:49.650Z,98662.75
2022-08-20T11:41:17.767Z,98662.09
2022-08-20T11:44:04.717Z,98656.69
2022-08-20T11:46:34.211Z,98649.09
2022-08-20T11:49:02.932Z,98643.03
2022-08-20T11:51:39.919Z,98646.59
2022-08-20T11:54:18.077Z,98651.03
2022-08-20T11:56:46.312Z,98649.69
2022-08-20T11:59:14.627Z,98639.94
2022-08-20T12:01:46.643Z,98638.84
2022-08-20T12:04:35.133Z,98644.59
2022-08-20T12:07:16.130Z,98642.59
2022-08-20T12:09:50.912Z,98626.34
2022-08-20T12:12:21.483Z,98627.53
2022-08-20T12:14:49.784Z,98622.34
2022-08-20T12:17:21.677Z,98631.22
2022-08-20T12:19:49.777Z,98635.13
2022-08-20T12:22:24.872Z,98637.09
2022-08-20T12:24:55.007Z,98622.03
2022-08-20T12:27:25.088Z,98609.91
2022-08-20T12:29:55.714Z,98617.16
2022-08-20T12:32:25.138Z,98612.81
2022-08-20T12:34:54.155Z,98607.19
2022-08-20T12:37:26.305Z,98617.56
2022-08-20T12:39:57.288Z,98592.97
2022-08-20T12:42:25.964Z,98594.63
2022-08-20T12:44:54.323Z,98583.88
2022-08-20T12:47:24.581Z,98601.41
2022-08-20T12:49:56.318Z,98591.69
2022-08-20T12:52:27.035Z,98602.09
2022-08-20T12:54:55.912Z,98611.53
2022-08-20T12:57:28.846Z,98596.00
2022-08-20T12:59:57.269Z,98594.28
2022-08-20T13:02:27.596Z,98586.59
2022-08-20T13:04:55.752Z,98581.19
2022-08-20T13:07:27.872Z,98579.44
2022-08-20T13:09:56.238Z,98575.22
2022-08-20T13:12:24.453Z,98576.06
2022-08-20T13:14:52.604Z,98570.31
2022-08-20T13:17:24.354Z,98564.16
2022-08-20T13:20:09.821Z,98566.97
2022-08-20T13:22:39.861Z,98555.72
2022-08-20T13:25:09.891Z,98549.31
2022-08-20T13:27:39.045Z,98551.06
2022-08-20T13:30:09.764Z,98549.22
2022-08-20T13:32:38.121Z,98546.75
2022-08-20T13:35:07.113Z,98548.06
2022-08-20T13:37:35.698Z,98533.53
2022-08-20T13:40:08.196Z,98529.53
2022-08-20T13:42:36.787Z,98528.66
2022-08-20T13:45:06.214Z,98514.91
2022-08-20T13:47:36.629Z,98513.25
2022-08-20T13:50:08.294Z,98514.03
2022-08-20T13:52:36.531Z,98516.28
2022-08-20T13:55:09.228Z,98514.09
2022-08-20T13:57:38.730Z,98510.50
2022-08-20T14:00:11.746Z,98507.03
2022-08-20T14:02:40.484Z,98509.59
2022-08-20T14:05:09.510Z,98505.72
2022-08-20T14:07:39.120Z,98512.06
2022-08-20T14:10:12.191Z,98513.03
2022-08-20T14:12:40.775Z,98510.41
2022-08-20T14:15:10.429Z,98507.84
2022-08-20T14:17:40.602Z,98511.69
2022-08-20T14:20:11.727Z,98508.81
2022-08-20T14:22:40.189Z,98500.38
2022-08-20T14:25:13.001Z,98497.25
2022-08-20T14:27:41.726Z,98498.53
2022-08-20T14:30:13.303Z,98493.09
2022-08-20T14:32:41.506Z,98491.78
2022-08-20T14:35:10.802Z,98497.66
2022-08-20T14:37:40.817Z,98492.03
2022-08-20T14:40:13.200Z,98496.91
2022-08-20T14:42:43.059Z,98488.81
2022-08-20T14:45:14.120Z,98488.81
2022-08-20T14:47:45.164Z,98475.47
2022-08-20T14:50:15.501Z,98471.41
2022-08-20T14:52:44.578Z,98475.34
2022-08-20T14:55:16.406Z,98469.94
2022-08-20T14:57:44.534Z,98472.28
2022-08-20T15:00:16.109Z,98465.78
2022-08-20T15:02:44.706Z,98459.03
2022-08-20T15:05:13.575Z,98463.19
2022-08-20T15:07:44.107Z,98458.56
2022-08-20T15:10:16.359Z,98474.50
2022-08-20T15:12:45.472Z,98488.63
2022-08-20T15:15:16.097Z,98485.81
2022-08-20T15:17:46.967Z,98494.50
2022-08-20T15:20:20.251Z,98494.53
2022-08-20T15:22:50.232Z,98500.81
2022-08-20T15:25:23.230Z,98505.97
2022-08-20T15:27:51.801Z,98500.03
2022-08-20T15:30:23.147Z,98500.25
2022-08-20T15:32:55.042Z,98502.53
2022-08-20T15:35:30.276Z,98501.56
2022-08-20T15:37:59.611Z,98508.03
2022-08-20T15:40:32.344Z,98508.59
2022-08-20T15:43:02.745Z,98512.84
2022-08-20T15:45:31.196Z,98507.88
2022-08-20T15:48:04.644Z,98512.53
2022-08-20T15:50:42.738Z,98510.81
2022-08-20T15:53:13.358Z,98516.31
2022-08-20T15:55:55.342Z,98520.09
2022-08-20T15:58:32.958Z,98517.16
2022-08-20T16:01:24.536Z,98520.84
2022-08-20T16:04:21.181Z,98514.78
2022-08-20T16:06:53.047Z,98521.03
2022-08-20T16:09:38.052Z,98520.84
2022-08-20T16:12:11.336Z,98524.53
2022-08-20T16:14:42.171Z,98519.38
2022-08-20T16:17:14.755Z,98517.00
2022-08-20T16:19:52.830Z,98516.47
2022-08-20T16:22:21.678Z,98525.31
2022-08-20T16:24:52.211Z,98539.31
2022-08-20T16:27:30.512Z,98537.81
2022-08-20T16:30:04.247Z,98551.75
2022-08-20T16:32:39.522Z,98549.91
2022-08-20T16:35:30.117Z,98554.91
2022-08-20T16:38:05.378Z,98567.66
2022-08-20T16:40:37.803Z,98569.09
2022-08-20T16:43:09.374Z,98591.72
2022-08-20T16:45:50.130Z,98588.81
2022-08-20T16:48:19.688Z,98584.53
2022-08-20T16:50:57.341Z,98591.19
2022-08-20T16:53:26.953Z,98584.59
2022-08-20T16:55:57.222Z,98588.16
2022-08-20T16:58:27.187Z,98595.28
2022-08-20T17:01:10.095Z,98602.69
2022-08-20T17:03:40.109Z,98600.88
2022-08-20T17:06:21.483Z,98612.03
2022-08-20T17:08:52.438Z,98612.03
2022-08-20T17:11:29.107Z,98615.34
2022-08-20T17:14:11.586Z,98618.56
2022-08-20T17:16:43.955Z,98619.03
2022-08-20T17:19:16.588Z,98615.19
2022-08-20T17:21:44.933Z,98618.25
2022-08-20T17:24:25.467Z,98615.44
2022-08-20T17:27:18.696Z,98615.91
2022-08-20T17:29:53.916Z,98614.88
2022-08-20T17:32:24.891Z,98616.41
2022-08-20T17:34:55.652Z,98610.53
2022-08-20T17:37:27.124Z,98603.72
2022-08-20T17:40:06.161Z,98611.06
2022-08-20T17:42:34.644Z,98617.63
2022-08-20T17:45:10.468Z,98619.38
2022-08-20T17:47:41.335Z,98629.00
2022-08-20T17:50:14.744Z,98625.44
2022-08-20T17:52:50.023Z,98637.88
2022-08-20T17:55:18.677Z,98638.88
2022-08-20T17:57:50.443Z,98647.06
2022-08-20T18:00:25.460Z,98647.28
2022-08-20T18:02:56.206Z,98647.03
2022-08-20T18:05:25.234Z,98655.63
2022-08-20T18:08:20.539Z,98651.03
2022-08-20T18:10:58.332Z,98660.16
2022-08-20T18:13:48.342Z,98655.59
2022-08-20T18:16:27.487Z,98645.97
2022-08-20T18:19:06.022Z,98656.59
2022-08-20T18:21:53.788Z,98662.19
2022-08-20T18:24:29.032Z,98663.69
2022-08-20T18:27:02.265Z,98669.78
2022-08-20T18:29:33.731Z,98660.59
2022-08-20T18:32:07.067Z,98658.03
2022-08-20T18:34:40.215Z,98662.75
2022-08-20T18:37:22.355Z,98667.25
2022-08-20T18:39:52.267Z,98668.69
2022-08-20T18:42:30.014Z,98669.25
2022-08-20T18:44:59.186Z,98678.84
2022-08-20T18:47:40.199Z,98678.81
2022-08-20T18:50:18.612Z,98689.09
2022-08-20T18:52:50.079Z,98682.81
2022-08-20T18:55:31.778Z,98678.41
2022-08-20T18:58:03.217Z,98675.84
2022-08-20T19:00:38.802Z,98664.16
2022-08-20T19:03:18.469Z,98663.22
2022-08-20T19:06:09.187Z,98647.22
2022-08-20T19:08:45.188Z,98645.16
2022-08-20T19:11:41.307Z,98650.81
2022-08-20T19:14:37.304Z,98642.53
2022-08-20T19:17:11.522Z,98645.22
2022-08-20T19:19:41.455Z,98650.00
2022-08-20T19:22:14.862Z,98652.69
2022-08-20T19:24:44.565Z,98649.38
2022-08-20T19:27:14.273Z,98653.69
2022-08-20T19:29:47.959Z,98695.44
2022-08-20T19:32:21.171Z,98745.31
2022-08-20T19:35:00.763Z,98785.78
2022-08-20T19:37:44.459Z,98795.47
2022-08-20T19:40:28.580Z,98817.00
2022-08-20T19:42:59.454Z,98822.88
2022-08-20T19:45:31.902Z,98835.53
2022-08-20T19:48:27.080Z,98842.00
2022-08-20T19:51:06.195Z,98856.81
2022-08-20T19:53:37.797Z,98865.75
2022-08-20T19:56:10.866Z,98875.03
2022-08-20T19:58:39.438Z,98890.00
2022-08-20T20:01:16.809Z,98900.31
2022-08-20T20:03:56.894Z,98917.28
2022-08-20T20:06:27.577Z,98921.59
2022-08-20T20:08:59.132Z,98920.81
2022-08-20T20:11:32.775Z,98919.09
2022-08-20T20:14:06.644Z,98927.91
2022-08-20T20:16:35.720Z,98931.44
2022-08-20T20:19:25.929Z,98928.38
2022-08-20T20:22:08.488Z,98919.75
2022-08-20T20:24:51.312Z,98914.50
2022-08-20T20:27:23.327Z,98922.97
2022-08-20T20:30:10.230Z,98921.44
2022-08-20T20:32:42.389Z,98916.34
2022-08-20T20:35:11.214Z,98910.19
2022-08-20T20:37:49.872Z,98911.72
2022-08-20T20:40:26.379Z,98929.91
2022-08-20T20:43:05.154Z,98922.06
2022-08-20T20:45:36.306Z,98951.47
2022-08-20T20:48:21.376Z,98943.16
2022-08-20T20:50:51.578Z,98955.78
2022-08-20T20:53:53.158Z,98944.69
2022-08-20T20:56:35.952Z,98932.13
2022-08-20T20:59:07.498Z,98949.38
2022-08-20T21:01:48.369Z,98960.81
2022-08-20T21:04:19.450Z,98968.38
2022-08-20T21:06:48.042Z,98970.72
2022-08-20T21:09:18.144Z,98940.94
2022-08-20T21:11:46.767Z,98932.84
2022-08-20T21:14:15.276Z,98934.00
2022-08-20T21:16:44.040Z,98890.19
2022-08-20T21:19:13.418Z,98873.78
2022-08-20T21:21:43.230Z,98871.56
2022-08-20T21:24:12.012Z,98906.06
2022-08-20T21:26:42.211Z,98950.75
2022-08-20T21:29:12.439Z,98943.19
2022-08-20T21:31:44.023Z,98926.44
2022-08-20T21:34:12.884Z,98907.06
2022-08-20T21:36:41.173Z,98920.94
2022-08-20T21:39:09.589Z,98936.28
2022-08-20T21:41:38.437Z,98932.50
2022-08-20T21:44:12.528Z,98937.72
2022-08-20T21:46:40.851Z,98950.00
2022-08-20T21:49:08.974Z,98960.13
2022-08-20T21:51:37.110Z,98983.59
2022-08-20T21:54:05.381Z,98969.84
2022-08-20T21:56:33.998Z,98970.59
2022-08-20T21:59:04.249Z,98955.97
2022-08-20T22:01:33.852Z,98967.31
2022-08-20T22:04:02.414Z,98959.63
2022-08-20T22:06:31.439Z,98949.63
2022-08-20T22:09:00.066Z,98934.47
2022-08-20T22:11:28.452Z,98935.69
2022-08-20T22:13:56.743Z,98929.25
2022-08-20T22:16:25.148Z,98911.84
2022-08-20T22:18:54.929Z,98909.81
2022-08-20T22:21:25.806Z,98913.91
2022-08-20T22:23:55.586Z,98903.84
2022-08-20T22:26:23.710Z,98905.97
2022-08-20T22:28:55.503Z,98900.47
2022-08-20T22:31:31.560Z,98891.16
2022-08-20T22:34:01.476Z,98893.44
2022-08-20T22:36:29.912Z,98880.44
2022-08-20T22:38:58.065Z,98882.31
2022-08-20T22:41:26.303Z,98880.44
2022-08-20T22:43:56.507Z,98870.97
2022-08-20T22:46:27.423Z,98878.44
2022-08-20T22:48:56.056Z,98876.47
2022-08-20T22:51:30.447Z,98870.13
2022-08-20T22:53:59.448Z,98863.94
2022-08-20T22:56:29.988Z,98855.97
2022-08-20T22:58:59.440Z,98838.75
2022-08-20T23:01:28.793Z,98830.59
2022-08-20T23:03:58.689Z,98823.28
2022-08-20T23:06:32.003Z,98819.56
2022-08-20T23:09:00.218Z,98817.00
2022-08-20T23:11:28.339Z,98823.31
2022-08-20T23:13:57.820Z,98829.34
2022-08-20T23:16:26.668Z,98854.47
2022-08-20T23:18:54.792Z,98866.56
2022-08-20T23:21:22.978Z,98872.25
2022-08-20T23:23:52.550Z,98872.59
2022-08-20T23:26:23.373Z,98869.00
2022-08-20T23:28:51.611Z,98876.31
2022-08-20T23:31:20.130Z,98866.72
2022-08-20T23:33:48.908Z,98857.25
2022-08-20T23:36:20.692Z,98844.63
2022-08-20T23:38:49.340Z,98825.81
2022-08-20T23:41:19.238Z,98803.13
2022-08-20T23:43:47.544Z,98806.91
2022-08-20T23:46:15.815Z,98813.69
2022-08-20T23:48:43.916Z,98810.72
2022-08-20T23:51:12.572Z,98818.41
2022-08-20T23:53:40.827Z,98800.75
2022-08-20T23:56:09.141Z,98795.25
2022-08-20T23:58:39.026Z,98800.75
